createdAt,value
2018-02-24T00:01:11.606Z,20.87
2018-02-24T00:06:14.897Z,18.53
2018-02-24T00:11:22.473Z,16.27
2018-02-24T00:16:26.906Z,14.83
2018-02-24T00:21:32.002Z,15.37
2018-02-24T00:26:35.837Z,13.60
2018-02-24T00:31:42.468Z,15.67
2018-02-24T00:36:45.725Z,10.90
2018-02-24T00:41:51.149Z,13.97
2018-02-24T00:46:54.665Z,15.00
2018-02-24T00:52:02.017Z,14.77
2018-02-24T00:57:05.419Z,16.60
2018-02-24T01:02:08.952Z,17.07
2018-02-24T01:07:12.255Z,15.43
2018-02-24T01:12:16.958Z,16.17
2018-02-24T01:17:20.701Z,11.93
2018-02-24T01:22:27.067Z,12.43
2018-02-24T01:27:30.901Z,12.50
2018-02-24T01:32:38.742Z,11.90
2018-02-24T01:37:42.965Z,11.57
2018-02-24T01:42:49.933Z,10.30
2018-02-24T01:47:53.301Z,10.33
2018-02-24T01:53:01.078Z,10.70
2018-02-24T01:58:05.229Z,10.10
2018-02-24T02:03:12.866Z,10.37
2018-02-24T02:08:16.989Z,10.43
2018-02-24T02:13:23.497Z,8.97
2018-02-24T02:18:26.998Z,10.23
2018-02-24T02:23:31.626Z,14.17
2018-02-24T02:28:35.392Z,15.77
2018-02-24T02:33:43.992Z,10.77
2018-02-24T02:38:47.366Z,10.60
2018-02-24T02:43:54.098Z,14.60
2018-02-24T02:48:58.166Z,14.13
2018-02-24T02:54:02.731Z,11.70
2018-02-24T02:59:06.283Z,16.17
2018-02-24T03:04:12.857Z,14.43
2018-02-24T03:09:16.207Z,10.80
2018-02-24T03:14:22.745Z,11.30
2018-02-24T03:19:26.264Z,9.50
2018-02-24T03:24:34.046Z,10.83
2018-02-24T03:29:38.348Z,10.27
2018-02-24T03:34:41.929Z,12.23
2018-02-24T03:39:45.657Z,11.80
2018-02-24T03:44:49.129Z,10.37
2018-02-24T03:49:54.324Z,9.47
2018-02-24T03:54:58.362Z,9.33
2018-02-24T04:00:02.797Z,10.60
2018-02-24T04:05:06.904Z,12.83
2018-02-24T04:10:10.994Z,9.93
2018-02-24T04:15:14.423Z,11.83
2018-02-24T04:20:20.951Z,10.13
2018-02-24T04:25:24.326Z,10.03
2018-02-24T04:30:27.769Z,12.03
2018-02-24T04:35:32.162Z,11.73
2018-02-24T04:40:36.033Z,12.13
2018-02-24T04:45:40.384Z,14.97
2018-02-24T04:50:44.778Z,19.63
2018-02-24T04:55:48.282Z,19.03
2018-02-24T05:00:52.025Z,17.10
2018-02-24T05:05:55.320Z,25.73
2018-02-24T05:10:58.968Z,27.33
2018-02-24T05:16:02.533Z,17.60
2018-02-24T05:21:07.272Z,15.43
2018-02-24T05:26:11.414Z,16.97
2018-02-24T05:31:15.305Z,18.53
2018-02-24T05:36:18.646Z,24.27
2018-02-24T05:41:22.264Z,13.20
2018-02-24T05:46:25.709Z,13.00
2018-02-24T05:51:30.182Z,16.47
2018-02-24T05:56:33.710Z,17.33
2018-02-24T06:01:37.264Z,18.27
2018-02-24T06:06:41.526Z,17.60
2018-02-24T06:11:49.293Z,21.57
2018-02-24T06:16:52.639Z,29.07
2018-02-24T06:21:57.120Z,20.83
2018-02-24T06:27:01.323Z,22.73
2018-02-24T06:32:06.449Z,23.70
2018-02-24T06:37:10.405Z,46.80
2018-02-24T06:42:14.661Z,37.20
2018-02-24T06:47:18.916Z,34.77
2018-02-24T06:52:25.664Z,25.03
2018-02-24T06:57:30.220Z,11.43
2018-02-24T07:02:35.447Z,11.87
2018-02-24T07:07:39.085Z,11.63
2018-02-24T07:12:45.717Z,11.20
2018-02-24T07:17:49.025Z,18.63
2018-02-24T07:22:52.468Z,21.63
2018-02-24T07:27:56.094Z,24.00
2018-02-24T07:32:59.496Z,40.23
2018-02-24T07:38:02.983Z,34.10
2018-02-24T07:43:09.513Z,34.23
2018-02-24T07:48:13.318Z,49.57
2018-02-24T07:53:18.142Z,45.70
2018-02-24T07:58:21.905Z,49.17
2018-02-24T08:03:26.162Z,52.20
2018-02-24T08:08:29.618Z,59.60
2018-02-24T08:13:36.193Z,64.43
2018-02-24T08:18:39.651Z,67.03
2018-02-24T08:23:46.218Z,85.07
2018-02-24T08:28:50.641Z,86.47
2018-02-24T08:33:54.916Z,40.60
2018-02-24T08:39:07.846Z,41.57
2018-02-24T08:44:12.158Z,35.17
2018-02-24T08:49:19.974Z,39.07
2018-02-24T08:54:23.315Z,43.83
2018-02-24T08:59:32.053Z,40.60
2018-02-24T09:04:36.208Z,33.90
2018-02-24T09:09:40.885Z,35.80
2018-02-24T09:14:44.656Z,45.40
2018-02-24T09:19:48.293Z,40.13
2018-02-24T09:24:51.605Z,50.93
2018-02-24T09:29:58.762Z,18.97
2018-02-24T09:35:02.885Z,17.50
2018-02-24T09:40:07.082Z,24.57
2018-02-24T09:45:11.147Z,23.20
2018-02-24T09:50:14.925Z,29.97
2018-02-24T09:55:18.474Z,16.33
2018-02-24T10:00:26.638Z,35.53
2018-02-24T10:05:30.391Z,23.83
2018-02-24T10:10:40.126Z,24.30
2018-02-24T10:15:43.670Z,20.03
2018-02-24T10:20:50.746Z,20.67
2018-02-24T10:25:54.133Z,15.67
2018-02-24T10:30:58.746Z,18.80
2018-02-24T10:36:02.158Z,14.67
2018-02-24T10:41:09.117Z,15.17
2018-02-24T10:46:14.126Z,16.60
2018-02-24T10:51:18.313Z,13.33
2018-02-24T10:56:21.769Z,20.30
2018-02-24T11:01:25.467Z,15.83
2018-02-24T11:06:29.182Z,18.17
2018-02-24T11:11:34.634Z,21.87
2018-02-24T11:16:38.972Z,22.13
2018-02-24T11:21:45.872Z,35.43
2018-02-24T11:26:49.290Z,32.97
2018-02-24T11:31:56.384Z,23.60
2018-02-24T11:36:59.914Z,23.67
2018-02-24T11:42:07.209Z,23.43
2018-02-24T11:47:11.254Z,19.73
2018-02-24T11:52:17.317Z,24.13
2018-02-24T11:57:21.029Z,19.93
2018-02-24T12:02:29.630Z,24.53
2018-02-24T12:07:33.300Z,34.57
2018-02-24T12:12:38.036Z,18.27
2018-02-24T12:17:42.028Z,17.87
2018-02-24T12:22:45.658Z,20.23
2018-02-24T12:27:49.190Z,21.77
2018-02-24T12:32:56.058Z,24.80
2018-02-24T12:38:00.254Z,24.70
2018-02-24T12:43:07.054Z,33.00
2018-02-24T12:48:10.402Z,31.43
2018-02-24T12:53:15.431Z,31.27
2018-02-24T12:58:19.769Z,41.80
2018-02-24T13:03:24.059Z,39.40
2018-02-24T13:08:29.215Z,29.47
2018-02-24T13:13:33.462Z,31.50
2018-02-24T13:18:38.794Z,26.67
2018-02-24T13:23:42.434Z,26.27
2018-02-24T13:28:50.297Z,30.13
2018-02-24T13:33:54.046Z,21.77
2018-02-24T13:39:00.739Z,17.73
2018-02-24T13:44:05.171Z,30.33
2018-02-24T13:49:09.607Z,30.27
2018-02-24T13:54:13.271Z,19.50
2018-02-24T13:59:18.029Z,16.67
2018-02-24T14:04:22.157Z,18.17
2018-02-24T14:09:29.870Z,22.77
2018-02-24T14:14:33.202Z,23.70
2018-02-24T14:19:37.874Z,24.20
2018-02-24T14:24:41.430Z,40.53
2018-02-24T14:29:45.165Z,27.57
2018-02-24T14:34:49.254Z,30.00
2018-02-24T14:39:53.196Z,16.67
2018-02-24T14:44:56.939Z,19.13
2018-02-24T14:50:04.555Z,23.63
2018-02-24T14:55:08.707Z,20.27
2018-02-24T15:00:16.058Z,22.90
2018-02-24T15:05:20.139Z,19.37
2018-02-24T15:10:25.087Z,16.30
2018-02-24T15:15:28.775Z,24.13
2018-02-24T15:20:33.545Z,32.80
2018-02-24T15:25:37.352Z,24.53
2018-02-24T15:30:43.150Z,31.50
2018-02-24T15:35:47.789Z,36.73
2018-02-24T15:40:51.708Z,65.13
2018-02-24T15:45:55.006Z,41.73
2018-02-24T15:51:02.119Z,37.93
2018-02-24T15:56:06.703Z,40.23
2018-02-24T16:01:14.126Z,35.37
2018-02-24T16:06:18.040Z,31.27
2018-02-24T16:11:22.358Z,37.17
2018-02-24T16:16:25.790Z,40.17
2018-02-24T16:21:34.407Z,122.37
2018-02-24T16:26:37.661Z,72.77
2018-02-24T16:31:42.715Z,21.30
2018-02-24T16:36:46.265Z,20.70
2018-02-24T16:41:50.197Z,38.53
2018-02-24T16:46:53.670Z,30.53
2018-02-24T16:52:00.482Z,43.63
2018-02-24T16:57:03.810Z,25.67
2018-02-24T17:02:09.011Z,28.73
2018-02-24T17:07:12.540Z,33.10
2018-02-24T17:12:20.030Z,27.53
2018-02-24T17:17:24.177Z,28.53
2018-02-24T17:22:28.926Z,24.10
2018-02-24T17:27:33.085Z,32.77
2018-02-24T17:32:36.645Z,19.63
2018-02-24T17:37:40.611Z,31.90
2018-02-24T17:42:44.594Z,23.00
2018-02-24T17:47:49.531Z,18.80
2018-02-24T17:52:53.087Z,22.23
2018-02-24T17:58:01.387Z,17.40
2018-02-24T18:03:05.270Z,16.47
2018-02-24T18:08:09.650Z,20.00
2018-02-24T18:13:13.194Z,18.13
2018-02-24T18:18:17.467Z,18.47
2018-02-24T18:23:21.026Z,15.97
2018-02-24T18:28:25.150Z,13.70
2018-02-24T18:33:29.443Z,12.27
2018-02-24T18:38:34.205Z,10.70
2018-02-24T18:43:37.711Z,10.40
2018-02-24T18:48:41.760Z,12.70
2018-02-24T18:53:46.070Z,16.50
2018-02-24T18:58:49.959Z,14.43
2018-02-24T19:03:53.582Z,13.67
2018-02-24T19:08:57.494Z,17.13
2018-02-24T19:14:01.476Z,15.70
2018-02-24T19:19:06.187Z,11.00
2018-02-24T19:24:09.718Z,16.67
2018-02-24T19:29:13.775Z,17.17
2018-02-24T19:34:17.484Z,16.40
2018-02-24T19:39:25.614Z,15.37
2018-02-24T19:44:30.658Z,17.83
2018-02-24T19:49:42.172Z,17.40
2018-02-24T19:54:47.451Z,18.93
2018-02-24T19:59:51.533Z,13.97
2018-02-24T20:04:54.790Z,14.93
2018-02-24T20:09:58.758Z,11.83
2018-02-24T20:15:02.065Z,18.33
2018-02-24T20:20:05.594Z,22.60
2018-02-24T20:25:09.253Z,20.13
2018-02-24T20:30:13.768Z,15.43
2018-02-24T20:35:18.046Z,24.77
2018-02-24T20:40:22.294Z,12.40
2018-02-24T20:45:26.238Z,15.03
2018-02-24T20:50:30.943Z,19.87
2018-02-24T20:55:34.893Z,10.63
2018-02-24T21:00:41.661Z,26.40
2018-02-24T21:05:45.931Z,18.43
2018-02-24T21:10:50.332Z,24.87
2018-02-24T21:15:54.518Z,25.13
2018-02-24T21:20:58.149Z,14.33
2018-02-24T21:26:02.245Z,26.17
2018-02-24T21:31:06.766Z,26.53
2018-02-24T21:36:10.670Z,24.10
2018-02-24T21:41:14.942Z,23.43
2018-02-24T21:46:18.919Z,16.23
2018-02-24T21:51:22.592Z,21.23
2018-02-24T21:56:26.681Z,19.60
2018-02-24T22:01:30.983Z,24.30
2018-02-24T22:06:35.147Z,21.90
2018-02-24T22:11:38.979Z,22.57
2018-02-24T22:16:42.577Z,18.80
2018-02-24T22:21:50.518Z,22.37
2018-02-24T22:26:54.207Z,19.60
2018-02-24T22:32:07.149Z,16.20
2018-02-24T22:37:11.868Z,18.20
2018-02-24T22:42:15.350Z,19.50
2018-02-24T22:47:19.122Z,15.97
2018-02-24T22:52:23.500Z,14.53
2018-02-24T22:57:27.419Z,18.27
2018-02-24T23:02:30.741Z,21.57
2018-02-24T23:07:35.906Z,21.30
2018-02-24T23:12:39.394Z,20.63
2018-02-24T23:17:42.876Z,20.70
2018-02-24T23:22:46.259Z,21.23
2018-02-24T23:27:49.753Z,15.63
2018-02-24T23:32:53.855Z,18.73
2018-02-24T23:37:58.543Z,17.60
2018-02-24T23:43:02.173Z,14.33
2018-02-24T23:48:05.944Z,17.63
2018-02-24T23:53:10.278Z,22.53
2018-02-24T23:58:13.910Z,19.70
